createdAt,value
2023-02-06T00:02:07.357Z,102187.28
2023-02-06T00:04:35.731Z,102178.72
2023-02-06T00:07:04.023Z,102182.19
2023-02-06T00:09:32.543Z,102183.97
2023-02-06T00:12:00.870Z,102179.84
2023-02-06T00:14:29.186Z,102195.63
2023-02-06T00:16:57.450Z,102198.38
2023-02-06T00:19:27.155Z,102201.00
2023-02-06T00:21:55.453Z,102189.00
2023-02-06T00:24:23.777Z,102196.19
2023-02-06T00:26:52.069Z,102206.72
2023-02-06T00:29:20.436Z,102188.47
2023-02-06T00:31:48.760Z,102196.50
2023-02-06T00:34:17.093Z,102189.59
2023-02-06T00:36:46.809Z,102208.28
2023-02-06T00:39:15.751Z,102214.34
2023-02-06T00:41:44.096Z,102201.66
2023-02-06T00:44:12.938Z,102205.94
2023-02-06T00:46:41.371Z,102216.59
2023-02-06T00:49:09.761Z,102222.84
2023-02-06T00:51:39.502Z,102225.88
2023-02-06T00:54:09.980Z,102225.88
2023-02-06T00:56:38.351Z,102227.00
2023-02-06T00:59:07.278Z,102217.59
2023-02-06T01:01:36.398Z,102221.34
2023-02-06T01:04:04.949Z,102224.13
2023-02-06T01:06:33.276Z,102221.78
2023-02-06T01:09:01.623Z,102230.66
2023-02-06T01:11:31.356Z,102231.75
2023-02-06T01:14:02.737Z,102226.78
2023-02-06T01:16:31.154Z,102225.25
2023-02-06T01:18:59.546Z,102227.06
2023-02-06T01:21:27.920Z,102229.97
2023-02-06T01:23:56.824Z,102231.91
2023-02-06T01:26:27.895Z,102239.09
2023-02-06T01:29:47.526Z,102254.47
2023-02-06T01:32:15.832Z,102247.03
2023-02-06T01:34:44.372Z,102252.41
2023-02-06T01:37:12.751Z,102251.84
2023-02-06T01:39:41.132Z,102250.06
2023-02-06T01:42:12.490Z,102246.75
2023-02-06T01:44:41.487Z,102237.34
2023-02-06T01:47:12.032Z,102247.16
2023-02-06T01:49:45.559Z,102243.97
2023-02-06T01:52:21.279Z,102247.59
2023-02-06T01:54:54.997Z,102233.78
2023-02-06T01:57:25.166Z,102231.44
2023-02-06T01:59:58.597Z,102233.34
2023-02-06T02:02:30.033Z,102233.63
2023-02-06T02:04:59.685Z,102236.25
2023-02-06T02:07:33.474Z,102225.19
2023-02-06T02:10:01.966Z,102219.28
2023-02-06T02:12:30.326Z,102216.78
2023-02-06T02:14:59.731Z,102229.22
2023-02-06T02:17:40.231Z,102223.53
2023-02-06T02:21:00.614Z,102223.84
2023-02-06T02:23:37.567Z,102227.56
2023-02-06T02:27:18.325Z,102219.97
2023-02-06T02:30:30.305Z,102226.63
2023-02-06T02:33:53.200Z,102229.63
2023-02-06T02:36:29.559Z,102223.56
2023-02-06T02:39:17.231Z,102234.31
2023-02-06T02:41:55.114Z,102218.56
2023-02-06T02:44:32.566Z,102236.13
2023-02-06T02:47:06.323Z,102232.91
2023-02-06T02:49:38.052Z,102220.63
2023-02-06T02:52:07.993Z,102239.81
2023-02-06T02:54:36.430Z,102224.22
2023-02-06T02:57:12.238Z,102227.94
2023-02-06T02:59:45.560Z,102228.91
2023-02-06T03:02:20.125Z,102228.22
2023-02-06T03:04:53.774Z,102234.31
2023-02-06T03:07:34.015Z,102235.25
2023-02-06T03:10:13.987Z,102225.03
2023-02-06T03:12:49.823Z,102226.00
2023-02-06T03:15:28.015Z,102226.16
2023-02-06T03:18:02.599Z,102234.03
2023-02-06T03:20:33.189Z,102234.03
2023-02-06T03:23:04.656Z,102233.19
2023-02-06T03:25:38.233Z,102232.34
2023-02-06T03:28:13.252Z,102228.88
2023-02-06T03:30:45.720Z,102240.22
2023-02-06T03:33:18.858Z,102237.59
2023-02-06T03:35:47.779Z,102237.59
2023-02-06T03:38:18.021Z,102233.19
2023-02-06T03:40:50.106Z,102226.16
2023-02-06T03:43:19.857Z,102228.78
2023-02-06T03:45:52.333Z,102215.66
2023-02-06T03:48:28.282Z,102224.34
2023-02-06T03:50:59.761Z,102222.56
2023-02-06T03:53:31.272Z,102228.78
2023-02-06T03:56:08.197Z,102219.22
2023-02-06T03:58:36.621Z,102223.66
2023-02-06T04:01:06.910Z,102221.84
2023-02-06T04:03:35.438Z,102203.47
2023-02-06T04:06:03.774Z,102225.44
2023-02-06T04:08:33.450Z,102223.78
2023-02-06T04:11:01.763Z,102243.13
2023-02-06T04:13:30.074Z,102238.72
2023-02-06T04:15:58.431Z,102241.47
2023-02-06T04:18:26.857Z,102235.38
2023-02-06T04:20:55.198Z,102238.00
2023-02-06T04:23:23.552Z,102233.72
2023-02-06T04:25:53.270Z,102232.91
2023-02-06T04:28:21.613Z,102237.34
2023-02-06T04:30:50.069Z,102233.88
2023-02-06T04:33:18.608Z,102234.81
2023-02-06T04:35:48.252Z,102239.97
2023-02-06T04:38:16.632Z,102229.56
2023-02-06T04:40:45.167Z,102224.34
2023-02-06T04:43:14.901Z,102232.19
2023-02-06T04:45:43.309Z,102226.97
2023-02-06T04:48:11.695Z,102216.47
2023-02-06T04:50:39.975Z,102213.84
2023-02-06T04:53:08.327Z,102227.78
2023-02-06T04:55:37.424Z,102224.34
2023-02-06T04:58:05.953Z,102227.94
2023-02-06T05:00:38.521Z,102226.28
2023-02-06T05:03:07.122Z,102235.81
2023-02-06T05:05:35.680Z,102229.72
2023-02-06T05:08:04.135Z,102231.53
2023-02-06T05:10:32.403Z,102240.34
2023-02-06T05:13:00.736Z,102235.94
2023-02-06T05:15:29.061Z,102239.50
2023-02-06T05:17:58.791Z,102254.44
2023-02-06T05:20:27.242Z,102245.72
2023-02-06T05:22:55.915Z,102243.13
2023-02-06T05:25:24.294Z,102247.66
2023-02-06T05:27:52.620Z,102249.44
2023-02-06T05:30:21.224Z,102246.81
2023-02-06T05:32:49.532Z,102245.03
2023-02-06T05:35:19.416Z,102238.94
2023-02-06T05:37:47.768Z,102232.06
2023-02-06T05:40:16.099Z,102239.78
2023-02-06T05:42:44.456Z,102244.19
2023-02-06T05:45:12.893Z,102234.69
2023-02-06T05:47:41.241Z,102238.94
2023-02-06T05:50:10.094Z,102246.00
2023-02-06T05:52:39.854Z,102240.75
2023-02-06T05:55:09.863Z,102236.34
2023-02-06T05:57:38.198Z,102232.06
2023-02-06T06:00:08.550Z,102236.47
2023-02-06T06:02:42.920Z,102238.41
2023-02-06T06:05:11.663Z,102232.22
2023-02-06T06:07:41.726Z,102235.78
2023-02-06T06:10:10.906Z,102239.09
2023-02-06T06:12:39.281Z,102234.69
2023-02-06T06:15:09.045Z,102233.84
2023-02-06T06:17:37.486Z,102226.00
2023-02-06T06:20:07.001Z,102225.16
2023-02-06T06:22:35.401Z,102219.91
2023-02-06T06:25:06.753Z,102210.38
2023-02-06T06:27:35.425Z,102215.63
2023-02-06T06:30:03.968Z,102217.41
2023-02-06T06:32:32.352Z,102213.84
2023-02-06T06:35:00.663Z,102213.00
2023-02-06T06:37:28.992Z,102223.47
2023-02-06T06:39:57.271Z,102226.09
2023-02-06T06:42:27.045Z,102225.28
2023-02-06T06:44:55.395Z,102228.72
2023-02-06T06:47:23.687Z,102228.72
2023-02-06T06:49:52.029Z,102230.53
2023-02-06T06:52:25.384Z,102229.84
2023-02-06T06:54:54.503Z,102242.00
2023-02-06T06:57:23.364Z,102228.06
2023-02-06T06:59:53.821Z,102229.69
2023-02-06T07:02:22.137Z,102242.00
2023-02-06T07:04:50.498Z,102239.38
2023-02-06T07:07:18.826Z,102245.44
2023-02-06T07:09:47.407Z,102249.03
2023-02-06T07:12:15.741Z,102254.28
2023-02-06T07:14:44.057Z,102255.94
2023-02-06T07:17:13.941Z,102248.06
2023-02-06T07:19:42.367Z,102258.56
2023-02-06T07:22:10.694Z,102247.25
2023-02-06T07:24:39.010Z,102247.25
2023-02-06T07:27:07.562Z,102245.59
2023-02-06T07:29:36.086Z,102247.94
2023-02-06T07:32:04.655Z,102245.44
2023-02-06T07:34:35.227Z,102250.56
2023-02-06T07:37:04.163Z,102244.47
2023-02-06T07:39:32.528Z,102238.28
2023-02-06T07:42:00.910Z,102243.13
2023-02-06T07:44:42.697Z,102248.63
2023-02-06T07:47:11.280Z,102239.94
2023-02-06T07:49:41.145Z,102260.75
2023-02-06T07:52:09.522Z,102250.16
2023-02-06T07:54:37.868Z,102247.53
2023-02-06T07:57:06.229Z,102250.00
2023-02-06T07:59:34.568Z,102249.06
2023-02-06T08:02:02.894Z,102248.22
2023-02-06T08:04:35.295Z,102239.50
2023-02-06T08:07:06.211Z,102241.19
2023-02-06T08:09:34.840Z,102240.22
2023-02-06T08:12:03.133Z,102246.28
2023-02-06T08:14:31.629Z,102249.75
2023-02-06T08:17:00.287Z,102243.66
2023-02-06T08:19:28.755Z,102243.53
2023-02-06T08:21:57.150Z,102233.19
2023-02-06T08:24:27.005Z,102246.03
2023-02-06T08:26:55.372Z,102243.41
2023-02-06T08:29:25.113Z,102241.47
2023-02-06T08:32:13.694Z,102230.13
2023-02-06T08:34:42.189Z,102235.25
2023-02-06T08:37:10.484Z,102235.94
2023-02-06T08:39:40.217Z,102235.94
2023-02-06T08:42:08.512Z,102227.09
2023-02-06T08:44:36.949Z,102237.47
2023-02-06T08:47:10.333Z,102229.72
2023-02-06T08:49:39.451Z,102232.06
2023-02-06T08:52:07.827Z,102231.13
2023-02-06T08:54:38.593Z,102238.03
2023-02-06T08:57:09.757Z,102239.69
2023-02-06T08:59:38.363Z,102231.81
2023-02-06T09:02:08.508Z,102230.84
2023-02-06T09:04:37.818Z,102227.38
2023-02-06T09:07:06.681Z,102233.47
2023-02-06T09:09:35.028Z,102233.34
2023-02-06T09:12:04.051Z,102231.53
2023-02-06T09:14:35.412Z,102236.63
2023-02-06T09:17:04.065Z,102224.38
2023-02-06T09:19:32.442Z,102218.97
2023-02-06T09:22:00.913Z,102205.84
2023-02-06T09:24:30.309Z,102215.13
2023-02-06T09:27:00.474Z,102232.66
2023-02-06T09:29:31.666Z,102247.34
2023-02-06T09:32:02.196Z,102243.72
2023-02-06T09:34:30.559Z,102237.66
2023-02-06T09:36:58.948Z,102234.88
2023-02-06T09:39:27.800Z,102236.69
2023-02-06T09:42:01.078Z,102248.97
2023-02-06T09:44:33.846Z,102227.84
2023-02-06T09:47:21.717Z,102241.09
2023-02-06T09:49:53.566Z,102224.38
2023-02-06T09:52:46.850Z,102212.09
2023-02-06T09:55:26.813Z,102194.56
2023-02-06T09:58:05.994Z,102199.81
2023-02-06T10:00:42.711Z,102207.53
2023-02-06T10:03:36.759Z,102207.53
2023-02-06T10:06:19.095Z,102205.63
2023-02-06T10:08:56.646Z,102202.03
2023-02-06T10:11:41.259Z,102202.84
2023-02-06T10:14:19.162Z,102197.44
2023-02-06T10:16:53.227Z,102191.25
2023-02-06T10:19:40.072Z,102190.53
2023-02-06T10:22:16.628Z,102183.63
2023-02-06T10:24:51.494Z,102182.66
2023-02-06T10:27:21.058Z,102184.31
2023-02-06T10:29:49.573Z,102176.16
2023-02-06T10:32:34.043Z,102173.53
2023-02-06T10:35:18.220Z,102170.09
2023-02-06T10:38:17.256Z,102177.16
2023-02-06T10:40:54.405Z,102163.84
2023-02-06T10:43:36.060Z,102167.31
2023-02-06T10:46:28.474Z,102164.69
2023-02-06T10:49:04.224Z,102162.06
2023-02-06T10:51:42.508Z,102161.13
2023-02-06T10:54:18.448Z,102145.09
2023-02-06T10:56:49.089Z,102144.94
2023-02-06T10:59:28.194Z,102148.09
2023-02-06T11:02:18.330Z,102137.31
2023-02-06T11:04:53.741Z,102140.50
2023-02-06T11:07:29.845Z,102135.91
2023-02-06T11:09:58.548Z,102129.28
2023-02-06T11:12:33.791Z,102127.03
2023-02-06T11:15:07.741Z,102137.97
2023-02-06T11:17:37.136Z,102128.81
2023-02-06T11:20:21.816Z,102125.91
2023-02-06T11:22:53.306Z,102138.06
2023-02-06T11:25:31.302Z,102118.56
2023-02-06T11:28:01.478Z,102104.47
2023-02-06T11:30:36.740Z,102103.47
2023-02-06T11:33:08.602Z,102101.66
2023-02-06T11:35:41.618Z,102092.16
2023-02-06T11:38:21.695Z,102087.88
2023-02-06T11:41:00.632Z,102098.38
2023-02-06T11:43:32.367Z,102105.16
2023-02-06T11:46:19.463Z,102103.19
2023-02-06T11:48:49.595Z,102096.13
2023-02-06T11:51:17.890Z,102103.06
2023-02-06T11:54:03.240Z,102103.88
2023-02-06T11:56:32.978Z,102101.38
2023-02-06T11:59:08.381Z,102097.13
2023-02-06T12:01:46.047Z,102090.06
2023-02-06T12:04:23.887Z,102084.69
2023-02-06T12:06:59.311Z,102077.06
2023-02-06T12:09:29.603Z,102071.00
2023-02-06T12:12:04.962Z,102059.34
2023-02-06T12:14:39.671Z,102062.97
2023-02-06T12:17:24.276Z,102066.28
2023-02-06T12:20:02.713Z,102056.44
2023-02-06T12:22:37.938Z,102049.25
2023-02-06T12:25:24.688Z,102050.75
2023-02-06T12:27:56.833Z,102041.75
2023-02-06T12:30:36.212Z,102037.47
2023-02-06T12:33:15.541Z,102058.03
2023-02-06T12:35:48.184Z,102064.00
2023-02-06T12:38:26.494Z,102063.84
2023-02-06T12:41:11.875Z,102054.31
2023-02-06T12:43:42.976Z,102058.56
2023-02-06T12:46:17.358Z,102060.09
2023-02-06T12:48:53.342Z,102058.00
2023-02-06T12:51:27.798Z,102041.94
2023-02-06T12:54:00.735Z,102031.09
2023-02-06T12:56:36.300Z,102033.72
2023-02-06T12:59:27.442Z,102038.03
2023-02-06T13:02:01.307Z,102017.97
2023-02-06T13:04:34.298Z,102031.63
2023-02-06T13:07:08.260Z,102023.47
2023-02-06T13:09:41.786Z,102018.06
2023-02-06T13:12:15.891Z,102024.16
2023-02-06T13:14:50.292Z,102011.13
2023-02-06T13:17:21.800Z,102018.91
2023-02-06T13:20:03.273Z,102019.72
2023-02-06T13:22:45.268Z,102013.34
2023-02-06T13:25:56.171Z,102014.16
2023-02-06T13:28:58.866Z,102021.22
2023-02-06T13:31:34.455Z,102021.88
2023-02-06T13:34:15.935Z,102018.97
2023-02-06T13:36:52.689Z,102011.59
2023-02-06T13:39:32.371Z,102010.63
2023-02-06T13:42:35.452Z,102008.28
2023-02-06T13:45:08.357Z,102005.00
2023-02-06T13:48:25.413Z,102001.69
2023-02-06T13:51:21.846Z,101994.94
2023-02-06T13:54:33.463Z,101998.41
2023-02-06T13:57:25.400Z,102005.28
2023-02-06T13:59:59.126Z,102000.03
2023-02-06T14:02:35.777Z,102000.84
2023-02-06T14:05:09.985Z,102002.66
2023-02-06T14:07:58.537Z,102007.09
2023-02-06T14:10:54.141Z,101999.06
2023-02-06T14:13:40.596Z,102011.38
2023-02-06T14:16:34.195Z,102007.25
2023-02-06T14:19:10.151Z,102003.50
2023-02-06T14:21:50.293Z,102000.72
2023-02-06T14:25:04.245Z,102007.63
2023-02-06T14:27:52.389Z,102008.28
2023-02-06T14:30:33.663Z,102000.41
2023-02-06T14:33:17.124Z,101995.00
2023-02-06T14:36:06.010Z,101990.56
2023-02-06T14:38:58.883Z,101990.56
2023-02-06T14:41:30.165Z,102004.53
2023-02-06T14:44:02.202Z,101989.47
2023-02-06T14:46:30.906Z,101983.06
2023-02-06T14:49:01.121Z,101977.66
2023-02-06T14:51:34.966Z,101996.59
2023-02-06T14:54:06.815Z,101980.00
2023-02-06T14:56:38.331Z,101993.28
2023-02-06T14:59:18.003Z,101989.47
2023-02-06T15:01:50.378Z,101994.03
2023-02-06T15:04:21.921Z,101994.19
2023-02-06T15:06:56.413Z,101992.50
2023-02-06T15:09:31.892Z,101987.25
2023-02-06T15:12:02.988Z,101978.53
2023-02-06T15:14:33.994Z,101979.38
2023-02-06T15:17:03.557Z,101969.84
2023-02-06T15:19:35.478Z,101964.75
2023-02-06T15:22:08.540Z,101971.00
2023-02-06T15:24:56.138Z,101974.72
2023-02-06T15:27:30.212Z,101954.00
2023-02-06T15:29:59.490Z,101973.09
2023-02-06T15:32:31.466Z,101964.50
2023-02-06T15:35:01.226Z,101971.41
2023-02-06T15:37:35.555Z,101968.13
2023-02-06T15:40:14.635Z,101958.56
2023-02-06T15:42:43.524Z,101965.50
2023-02-06T15:45:22.468Z,101964.69
2023-02-06T15:47:53.327Z,101957.44
2023-02-06T15:50:25.060Z,101974.88
2023-02-06T15:52:55.449Z,101968.78
2023-02-06T15:55:30.503Z,101963.69
2023-02-06T15:58:01.281Z,101980.28
2023-02-06T16:00:33.312Z,101973.22
2023-02-06T16:03:05.005Z,101977.66
2023-02-06T16:05:36.352Z,101982.63
2023-02-06T16:08:12.123Z,101976.38
2023-02-06T16:10:42.087Z,101983.16
2023-02-06T16:13:15.871Z,101969.84
2023-02-06T16:16:05.694Z,101981.88
2023-02-06T16:18:39.060Z,101987.66
2023-02-06T16:21:28.056Z,101994.41
2023-02-06T16:24:12.887Z,101975.84
2023-02-06T16:26:47.052Z,102001.84
2023-02-06T16:29:26.884Z,101986.88
2023-02-06T16:32:01.896Z,101999.06
2023-02-06T16:34:39.755Z,102004.47
2023-02-06T16:37:13.205Z,102010.72
2023-02-06T16:39:44.450Z,102008.09
2023-02-06T16:42:16.277Z,102007.25
2023-02-06T16:44:48.761Z,101999.34
2023-02-06T16:47:19.783Z,102002.97
2023-02-06T16:49:49.648Z,102007.94
2023-02-06T16:52:22.233Z,102024.53
2023-02-06T16:54:52.446Z,102018.28
2023-02-06T16:57:26.697Z,102014.84
2023-02-06T16:59:55.094Z,102016.66
2023-02-06T17:02:23.923Z,102015.00
2023-02-06T17:04:52.342Z,102023.00
2023-02-06T17:07:24.115Z,102026.78
2023-02-06T17:09:56.827Z,102023.78
2023-02-06T17:12:25.433Z,102023.78
2023-02-06T17:14:53.876Z,102019.34
2023-02-06T17:17:23.972Z,102028.22
2023-02-06T17:19:53.580Z,102042.47
2023-02-06T17:22:22.350Z,102038.19
2023-02-06T17:24:50.844Z,102032.94
2023-02-06T17:27:22.969Z,102020.78
2023-02-06T17:29:53.738Z,102037.22
2023-02-06T17:32:23.056Z,102034.28
2023-02-06T17:34:54.187Z,102036.91
2023-02-06T17:37:22.818Z,102034.16
2023-02-06T17:39:52.690Z,102029.72
2023-02-06T17:42:24.317Z,102028.06
2023-02-06T17:44:52.760Z,102020.19
2023-02-06T17:47:21.404Z,102010.09
2023-02-06T17:49:49.787Z,102004.00
2023-02-06T17:52:18.793Z,102003.50
2023-02-06T17:54:47.173Z,102005.00
2023-02-06T17:57:15.542Z,101997.28
2023-02-06T17:59:46.968Z,102004.47
2023-02-06T18:02:15.517Z,102000.19
2023-02-06T18:04:43.935Z,101994.41
2023-02-06T18:07:12.352Z,101994.84
2023-02-06T18:09:42.153Z,101994.84
2023-02-06T18:12:10.810Z,101993.19
2023-02-06T18:14:40.685Z,102001.91
2023-02-06T18:17:10.723Z,101987.28
2023-02-06T18:19:42.346Z,101990.84
2023-02-06T18:22:13.846Z,101983.97
2023-02-06T18:24:42.389Z,101977.72
2023-02-06T18:27:11.316Z,101980.34
2023-02-06T18:29:49.287Z,101978.69
2023-02-06T18:32:20.689Z,101985.06
2023-02-06T18:34:49.074Z,101990.19
2023-02-06T18:37:17.790Z,101990.34
2023-02-06T18:39:46.174Z,101991.31
2023-02-06T18:42:32.107Z,101989.66
2023-02-06T18:45:02.113Z,101996.84
2023-02-06T18:47:33.593Z,101999.66
2023-02-06T18:50:02.012Z,101998.81
2023-02-06T18:52:30.525Z,102003.38
2023-02-06T18:54:58.917Z,102004.66
2023-02-06T18:57:27.346Z,102003.97
2023-02-06T18:59:55.698Z,102003.31
2023-02-06T19:02:24.019Z,102002.63
2023-02-06T19:04:54.455Z,102009.03
2023-02-06T19:07:22.794Z,102019.66
2023-02-06T19:09:51.172Z,102019.00
2023-02-06T19:12:19.527Z,102008.63
2023-02-06T19:14:47.892Z,101991.34
2023-02-06T19:17:16.370Z,101991.50
2023-02-06T19:19:44.800Z,102001.31
2023-02-06T19:22:14.507Z,102011.97
2023-02-06T19:24:43.000Z,102015.59
2023-02-06T19:27:11.988Z,102029.66
2023-02-06T19:29:40.654Z,102036.88
2023-02-06T19:32:10.514Z,102041.44
2023-02-06T19:34:40.940Z,102032.91
2023-02-06T19:37:11.702Z,102040.09
2023-02-06T19:39:43.400Z,102034.00
2023-02-06T19:42:15.486Z,102046.59
2023-02-06T19:44:44.704Z,102037.34
2023-02-06T19:47:13.250Z,102044.41
2023-02-06T19:49:43.582Z,102042.34
2023-02-06T19:52:14.465Z,102035.75
2023-02-06T19:54:47.843Z,102033.13
2023-02-06T19:57:19.282Z,102050.84
2023-02-06T19:59:47.657Z,102054.72
2023-02-06T20:02:17.012Z,102039.69
2023-02-06T20:04:46.320Z,102046.28
2023-02-06T20:07:14.719Z,102051.56
2023-02-06T20:09:51.169Z,102051.56
2023-02-06T20:12:19.594Z,102064.66
2023-02-06T20:14:47.927Z,102065.53
2023-02-06T20:17:17.445Z,102069.78
2023-02-06T20:19:45.789Z,102061.09
2023-02-06T20:22:14.141Z,102057.53
2023-02-06T20:24:43.829Z,102065.53
2023-02-06T20:27:13.198Z,102069.09
2023-02-06T20:29:43.397Z,102056.69
2023-02-06T20:32:12.063Z,102060.56
2023-02-06T20:34:40.473Z,102059.03
2023-02-06T20:37:09.078Z,102048.81
2023-02-06T20:39:37.408Z,102060.28
2023-02-06T20:42:07.261Z,102048.00
2023-02-06T20:44:35.554Z,102045.38
2023-02-06T20:47:03.856Z,102055.88
2023-02-06T20:49:32.446Z,102047.84
2023-02-06T20:52:03.334Z,102059.31
2023-02-06T20:54:31.698Z,102059.16
2023-02-06T20:57:00.452Z,102055.88
2023-02-06T20:59:30.542Z,102057.66
2023-02-06T21:01:58.940Z,102056.84
2023-02-06T21:04:27.326Z,102050.63
2023-02-06T21:06:56.358Z,102052.41
2023-02-06T21:09:24.853Z,102048.00
2023-02-06T21:11:53.212Z,102054.88
2023-02-06T21:14:21.954Z,102054.06
2023-02-06T21:16:51.665Z,102047.28
2023-02-06T21:19:22.122Z,102050.06
2023-02-06T21:21:50.822Z,102048.44
2023-02-06T21:24:19.739Z,102052.69
2023-02-06T21:26:48.257Z,102044.00
2023-02-06T21:29:17.240Z,102029.22
2023-02-06T21:31:46.687Z,102039.72
2023-02-06T21:34:21.334Z,102039.56
2023-02-06T21:36:50.589Z,102050.22
2023-02-06T21:39:22.091Z,102055.31
2023-02-06T21:41:53.648Z,102062.38
2023-02-06T21:44:23.779Z,102054.50
2023-02-06T21:46:52.590Z,102057.94
2023-02-06T21:49:23.264Z,102050.06
2023-02-06T21:51:53.124Z,102044.00
2023-02-06T21:54:22.402Z,102057.13
2023-02-06T21:56:50.675Z,102042.34
2023-02-06T21:59:19.634Z,102032.69
2023-02-06T22:01:48.027Z,102036.25
2023-02-06T22:04:16.344Z,102047.72
2023-02-06T22:06:47.589Z,102039.03
2023-02-06T22:09:18.957Z,102044.28
2023-02-06T22:11:47.778Z,102034.88
2023-02-06T22:14:18.773Z,102041.81
2023-02-06T22:16:47.618Z,102048.28
2023-02-06T22:19:17.598Z,102044.81
2023-02-06T22:21:47.356Z,102024.13
2023-02-06T22:24:15.954Z,102036.97
2023-02-06T22:26:44.862Z,102044.97
2023-02-06T22:29:17.072Z,102044.28
2023-02-06T22:31:46.158Z,102047.06
2023-02-06T22:34:18.438Z,102039.19
2023-02-06T22:36:50.583Z,102035.84
2023-02-06T22:39:19.331Z,102027.16
2023-02-06T22:41:48.159Z,102037.00
2023-02-06T22:44:17.540Z,102037.38
2023-02-06T22:46:48.868Z,102036.84
2023-02-06T22:49:18.761Z,102044.84
2023-02-06T22:51:48.789Z,102039.88
2023-02-06T22:54:17.418Z,102043.47
2023-02-06T22:56:46.776Z,102050.63
2023-02-06T22:59:18.108Z,102040.44
2023-02-06T23:01:48.753Z,102037.25
2023-02-06T23:04:20.171Z,102042.66
2023-02-06T23:06:51.589Z,102049.13
2023-02-06T23:09:23.617Z,102037.81
2023-02-06T23:11:53.155Z,102041.38
2023-02-06T23:14:21.741Z,102037.00
2023-02-06T23:16:50.838Z,102032.69
2023-02-06T23:19:20.056Z,102037.28
2023-02-06T23:21:52.249Z,102048.69
2023-02-06T23:24:21.347Z,102038.22
2023-02-06T23:26:51.895Z,102042.63
2023-02-06T23:29:24.317Z,102045.53
2023-02-06T23:31:53.240Z,102035.34
2023-02-06T23:34:24.201Z,102041.41
2023-02-06T23:36:54.551Z,102052.84
2023-02-06T23:39:23.004Z,102044.28
2023-02-06T23:41:51.428Z,102034.09
2023-02-06T23:44:20.354Z,102045.53
2023-02-06T23:46:48.891Z,102054.22
2023-02-06T23:49:17.200Z,102057.94
2023-02-06T23:51:45.585Z,102052.13
2023-02-06T23:54:15.388Z,102052.03
2023-02-06T23:56:43.924Z,102056.28
2023-02-06T23:59:15.351Z,102055.31
